Terminal Aerodrome Forecast
Issued by NWS

Home | Current Version | Previous Version | Text Only | Print | Product List | Glossary On
Versions: 1 2 3 4 5 6 7 8 9 10 11 12 13 14 15 16 17 18 19
240
FTUS46 KSEW 281120
TAFCLM
TAF
KCLM 281120Z 2812/2912 12005KT 6SM -RA SCT015 OVC030
      TEMPO 2812/2816 5SM -RA BR OVC015
     FM281600 24005KT P6SM -RA OVC025
     FM281900 32008KT P6SM VCSH SCT030 BKN050
     FM290600 29010KT P6SM OVC025=

USA.gov is the U.S. government's official web portal to all federal, state and local government web resources and services.